Terminal Aerodrome Forecast
Issued by NWS

Home | Current Version | Previous Version | Graphics & Text | Print | Product List | Glossary On
Versions: 1 2 3 4 5 6 7 8 9 10 11 12 13 14 15
905
FTUS43 KMPX 140904 AAA
TAFAXN
TAF AMD
KAXN 140904Z 1409/1506 31006KT P6SM SCT007 OVC010
     FM141800 32012G20KT P6SM OVC012
     FM150300 31010KT P6SM BKN015 OVC040=

USA.gov is the U.S. government's official web portal to all federal, state and local government web resources and services.